sensor_id;sensor_type;location;lat;lon;timestamp;pressure;altitude;pressure_sealevel;temperature;humidity
54236;BME280;40151;43.606;1.472;2023-01-28T00:01:37;99749.75;;;13.22;48.64
54236;BME280;40151;43.606;1.472;2023-01-28T00:04:03;99736.78;;;13.18;48.72
54236;BME280;40151;43.606;1.472;2023-01-28T00:06:28;99755.94;;;13.20;48.66
54236;BME280;40151;43.606;1.472;2023-01-28T00:08:54;99738.59;;;13.15;48.91
54236;BME280;40151;43.606;1.472;2023-01-28T00:11:20;99742.81;;;13.21;48.73
54236;BME280;40151;43.606;1.472;2023-01-28T00:13:50;99744.50;;;13.24;48.65
54236;BME280;40151;43.606;1.472;2023-01-28T00:16:17;99741.97;;;13.21;49.00
54236;BME280;40151;43.606;1.472;2023-01-28T00:18:42;99731.53;;;13.18;48.71
54236;BME280;40151;43.606;1.472;2023-01-28T00:21:13;99742.91;;;13.18;48.79
54236;BME280;40151;43.606;1.472;2023-01-28T00:23:40;99750.63;;;13.23;48.68
54236;BME280;40151;43.606;1.472;2023-01-28T00:26:12;99748.97;;;13.19;48.82
54236;BME280;40151;43.606;1.472;2023-01-28T00:28:39;99746.34;;;13.20;48.63
54236;BME280;40151;43.606;1.472;2023-01-28T00:31:06;99748.94;;;13.20;48.71
54236;BME280;40151;43.606;1.472;2023-01-28T00:33:31;99742.91;;;13.18;48.70
54236;BME280;40151;43.606;1.472;2023-01-28T00:36:00;99740.31;;;13.16;48.91
54236;BME280;40151;43.606;1.472;2023-01-28T00:38:26;99742.03;;;13.18;48.83
54236;BME280;40151;43.606;1.472;2023-01-28T00:40:52;99741.16;;;13.17;48.79
54236;BME280;40151;43.606;1.472;2023-01-28T00:43:18;99736.78;;;13.18;48.76
54236;BME280;40151;43.606;1.472;2023-01-28T00:45:43;99727.22;;;13.15;48.67
54236;BME280;40151;43.606;1.472;2023-01-28T00:48:08;99720.25;;;13.15;48.64
54236;BME280;40151;43.606;1.472;2023-01-28T00:50:34;99705.41;;;13.14;48.94
54236;BME280;40151;43.606;1.472;2023-01-28T00:52:59;99710.63;;;13.14;49.02
54236;BME280;40151;43.606;1.472;2023-01-28T00:55:25;99711.59;;;13.12;48.81
54236;BME280;40151;43.606;1.472;2023-01-28T00:57:52;99714.16;;;13.13;48.85
54236;BME280;40151;43.606;1.472;2023-01-28T01:00:18;99726.34;;;13.14;48.83
54236;BME280;40151;43.606;1.472;2023-01-28T01:02:46;99727.25;;;13.13;48.81
54236;BME280;40151;43.606;1.472;2023-01-28T01:05:11;99726.34;;;13.14;48.51
54236;BME280;40151;43.606;1.472;2023-01-28T01:07:36;99724.66;;;13.13;48.77
54236;BME280;40151;43.606;1.472;2023-01-28T01:10:14;99719.50;;;13.10;48.90
54236;BME280;40151;43.606;1.472;2023-01-28T01:12:40;99735.22;;;13.10;48.80
54236;BME280;40151;43.606;1.472;2023-01-28T01:15:07;99735.19;;;13.12;48.84
54236;BME280;40151;43.606;1.472;2023-01-28T01:17:38;99728.09;;;13.15;48.56
54236;BME280;40151;43.606;1.472;2023-01-28T01:20:05;99717.69;;;13.12;48.82
54236;BME280;40151;43.606;1.472;2023-01-28T01:22:35;99721.22;;;13.11;48.91
54236;BME280;40151;43.606;1.472;2023-01-28T01:25:02;99724.69;;;13.12;48.82
54236;BME280;40151;43.606;1.472;2023-01-28T01:27:29;99714.31;;;13.07;48.77
54236;BME280;40151;43.606;1.472;2023-01-28T01:29:54;99716.03;;;13.08;48.93
54236;BME280;40151;43.606;1.472;2023-01-28T01:32:20;99719.50;;;13.10;48.82
54236;BME280;40151;43.606;1.472;2023-01-28T01:34:46;99722.16;;;13.07;48.92
54236;BME280;40151;43.606;1.472;2023-01-28T01:37:11;99729.13;;;13.08;48.90
54236;BME280;40151;43.606;1.472;2023-01-28T01:39:37;99741.28;;;13.11;48.81
54236;BME280;40151;43.606;1.472;2023-01-28T01:42:03;99732.63;;;13.09;48.92
54236;BME280;40151;43.606;1.472;2023-01-28T01:45:00;99735.22;;;13.10;48.77
54236;BME280;40151;43.606;1.472;2023-01-28T01:50:41;99746.59;;;13.09;48.78
54236;BME280;40151;43.606;1.472;2023-01-28T01:53:10;99747.47;;;13.08;48.84
54236;BME280;40151;43.606;1.472;2023-01-28T01:55:40;99754.50;;;13.06;48.86
54236;BME280;40151;43.606;1.472;2023-01-28T01:58:11;99747.47;;;13.08;48.83
54236;BME280;40151;43.606;1.472;2023-01-28T02:00:39;99755.31;;;13.08;48.88
54236;BME280;40151;43.606;1.472;2023-01-28T02:03:04;99745.84;;;13.04;48.95
54236;BME280;40151;43.606;1.472;2023-01-28T02:05:30;99735.34;;;13.04;48.87
54236;BME280;40151;43.606;1.472;2023-01-28T02:07:57;99723.97;;;13.05;48.85
54236;BME280;40151;43.606;1.472;2023-01-28T02:10:42;99726.59;;;13.05;48.85
54236;BME280;40151;43.606;1.472;2023-01-28T02:13:08;99730.13;;;13.04;48.82
54236;BME280;40151;43.606;1.472;2023-01-28T02:15:34;99730.13;;;13.04;48.81
54236;BME280;40151;43.606;1.472;2023-01-28T02:17:59;99733.56;;;13.06;48.97
54236;BME280;40151;43.606;1.472;2023-01-28T02:28:56;99752.03;;;13.00;48.75
54236;BME280;40151;43.606;1.472;2023-01-28T02:31:44;99765.91;;;13.05;48.83
54236;BME280;40151;43.606;1.472;2023-01-28T02:39:22;99763.34;;;13.02;48.86
54236;BME280;40151;43.606;1.472;2023-01-28T02:41:52;99755.53;;;13.00;48.89
54236;BME280;40151;43.606;1.472;2023-01-28T02:44:19;99754.66;;;13.00;48.81
54236;BME280;40151;43.606;1.472;2023-01-28T02:46:44;99758.19;;;12.99;48.84
54236;BME280;40151;43.606;1.472;2023-01-28T02:49:55;99756.38;;;13.01;48.94
54236;BME280;40151;43.606;1.472;2023-01-28T02:52:46;99762.47;;;13.03;48.83
54236;BME280;40151;43.606;1.472;2023-01-28T02:55:44;99759.06;;;12.98;48.84
54236;BME280;40151;43.606;1.472;2023-01-28T02:58:43;99759.91;;;13.00;48.90
54236;BME280;40151;43.606;1.472;2023-01-28T03:01:24;99761.69;;;12.98;48.86
54236;BME280;40151;43.606;1.472;2023-01-28T03:04:13;99766.94;;;12.98;48.90
54236;BME280;40151;43.606;1.472;2023-01-28T03:06:44;99757.31;;;12.98;48.81
54236;BME280;40151;43.606;1.472;2023-01-28T03:09:13;99763.41;;;12.99;48.83
54236;BME280;40151;43.606;1.472;2023-01-28T03:12:13;99775.63;;;13.00;48.96
54236;BME280;40151;43.606;1.472;2023-01-28T03:15:12;99766.94;;;12.98;48.90
54236;BME280;40151;43.606;1.472;2023-01-28T03:18:05;99773.91;;;12.99;48.88
54236;BME280;40151;43.606;1.472;2023-01-28T03:21:03;99777.41;;;12.98;48.79
54236;BME280;40151;43.606;1.472;2023-01-28T03:23:58;99778.34;;;12.95;48.84
54236;BME280;40151;43.606;1.472;2023-01-28T03:27:02;99782.66;;;12.98;48.76
54236;BME280;40151;43.606;1.472;2023-01-28T03:29:50;99774.88;;;12.93;48.85
54236;BME280;40151;43.606;1.472;2023-01-28T03:32:37;99771.38;;;12.94;48.79
54236;BME280;40151;43.606;1.472;2023-01-28T03:35:23;99767.00;;;12.95;48.88
54236;BME280;40151;43.606;1.472;2023-01-28T03:38:10;99766.16;;;12.94;48.81
54236;BME280;40151;43.606;1.472;2023-01-28T03:40:59;99772.22;;;12.95;48.90
54236;BME280;40151;43.606;1.472;2023-01-28T03:43:25;99769.69;;;12.92;48.88
54236;BME280;40151;43.606;1.472;2023-01-28T03:45:51;99768.78;;;12.93;49.02
54236;BME280;40151;43.606;1.472;2023-01-28T03:48:21;99767.94;;;12.91;48.86
54236;BME280;40151;43.606;1.472;2023-01-28T03:50:47;99771.44;;;12.91;48.89
54236;BME280;40151;43.606;1.472;2023-01-28T03:53:14;99779.28;;;12.93;48.92
54236;BME280;40151;43.606;1.472;2023-01-28T03:55:41;99774.03;;;12.93;48.95
54236;BME280;40151;43.606;1.472;2023-01-28T03:58:07;99779.28;;;12.93;49.05
54236;BME280;40151;43.606;1.472;2023-01-28T04:00:33;99781.03;;;12.91;48.82
54236;BME280;40151;43.606;1.472;2023-01-28T04:03:04;99780.19;;;12.92;48.96
54236;BME280;40151;43.606;1.472;2023-01-28T04:05:45;99782.72;;;12.93;48.95
54236;BME280;40151;43.606;1.472;2023-01-28T04:08:11;99776.69;;;12.91;48.81
54236;BME280;40151;43.606;1.472;2023-01-28T04:10:38;99788.03;;;12.92;48.86
54236;BME280;40151;43.606;1.472;2023-01-28T04:13:04;99787.16;;;12.91;48.86
54236;BME280;40151;43.606;1.472;2023-01-28T04:15:30;99782.78;;;12.92;48.88
54236;BME280;40151;43.606;1.472;2023-01-28T04:17:56;99785.41;;;12.92;48.87
54236;BME280;40151;43.606;1.472;2023-01-28T04:20:21;99786.28;;;12.91;48.79
54236;BME280;40151;43.606;1.472;2023-01-28T04:22:47;99788.09;;;12.88;48.91
54236;BME280;40151;43.606;1.472;2023-01-28T04:25:12;99788.03;;;12.92;48.95
54236;BME280;40151;43.606;1.472;2023-01-28T04:27:38;99788.09;;;12.88;48.90
54236;BME280;40151;43.606;1.472;2023-01-28T04:30:03;99793.31;;;12.88;48.96
54236;BME280;40151;43.606;1.472;2023-01-28T04:32:29;99795.03;;;12.89;48.94
54236;BME280;40151;43.606;1.472;2023-01-28T04:34:54;99798.56;;;12.88;48.78
54236;BME280;40151;43.606;1.472;2023-01-28T04:37:20;99800.28;;;12.89;49.00
54236;BME280;40151;43.606;1.472;2023-01-28T04:39:45;99804.69;;;12.87;48.93
54236;BME280;40151;43.606;1.472;2023-01-28T04:42:11;99810.72;;;12.93;48.85
54236;BME280;40151;43.606;1.472;2023-01-28T04:44:36;99811.63;;;12.90;48.86
54236;BME280;40151;43.606;1.472;2023-01-28T04:47:01;99804.63;;;12.91;48.79
54236;BME280;40151;43.606;1.472;2023-01-28T04:49:27;99817.72;;;12.91;48.80
54236;BME280;40151;43.606;1.472;2023-01-28T04:51:52;99814.28;;;12.88;48.98
54236;BME280;40151;43.606;1.472;2023-01-28T04:54:17;99817.72;;;12.91;48.80
54236;BME280;40151;43.606;1.472;2023-01-28T04:56:43;99818.63;;;12.88;49.05
54236;BME280;40151;43.606;1.472;2023-01-28T04:59:08;99817.72;;;12.91;48.65
54236;BME280;40151;43.606;1.472;2023-01-28T05:01:34;99809.06;;;12.87;48.84
54236;BME280;40151;43.606;1.472;2023-01-28T05:03:59;99826.56;;;12.86;48.82
54236;BME280;40151;43.606;1.472;2023-01-28T05:06:32;99824.75;;;12.88;48.77
54236;BME280;40151;43.606;1.472;2023-01-28T05:08:58;99819.66;;;12.82;48.90
54236;BME280;40151;43.606;1.472;2023-01-28T05:11:23;99823.97;;;12.85;48.92
54236;BME280;40151;43.606;1.472;2023-01-28T05:13:49;99824.84;;;12.85;48.85
54236;BME280;40151;43.606;1.472;2023-01-28T05:16:14;99826.59;;;12.83;48.95
54236;BME280;40151;43.606;1.472;2023-01-28T05:18:40;99831.00;;;12.83;48.82
54236;BME280;40151;43.606;1.472;2023-01-28T05:21:05;99834.47;;;12.83;48.93
54236;BME280;40151;43.606;1.472;2023-01-28T05:23:31;99834.47;;;12.83;48.85
54236;BME280;40151;43.606;1.472;2023-01-28T05:25:56;99843.09;;;12.88;49.03
54236;BME280;40151;43.606;1.472;2023-01-28T05:28:22;99842.28;;;12.86;48.77
54236;BME280;40151;43.606;1.472;2023-01-28T05:30:47;99849.22;;;12.87;48.79
54236;BME280;40151;43.606;1.472;2023-01-28T05:33:13;99847.50;;;12.86;48.91
54236;BME280;40151;43.606;1.472;2023-01-28T05:35:38;99845.78;;;12.85;48.91
54236;BME280;40151;43.606;1.472;2023-01-28T05:38:04;99843.16;;;12.85;48.86
54236;BME280;40151;43.606;1.472;2023-01-28T05:40:29;99849.28;;;12.84;48.88
54236;BME280;40151;43.606;1.472;2023-01-28T05:42:55;99851.91;;;12.84;49.02
54236;BME280;40151;43.606;1.472;2023-01-28T05:45:20;99851.06;;;12.84;48.91
54236;BME280;40151;43.606;1.472;2023-01-28T05:47:46;99849.28;;;12.84;48.91
54236;BME280;40151;43.606;1.472;2023-01-28T05:50:12;99858.03;;;12.83;48.95
54236;BME280;40151;43.606;1.472;2023-01-28T05:52:38;99852.78;;;12.83;48.92
54236;BME280;40151;43.606;1.472;2023-01-28T05:55:04;99857.19;;;12.83;48.89
54236;BME280;40151;43.606;1.472;2023-01-28T05:57:30;99863.28;;;12.83;48.80
54236;BME280;40151;43.606;1.472;2023-01-28T05:59:56;99858.03;;;12.83;48.93
54236;BME280;40151;43.606;1.472;2023-01-28T06:02:21;99867.56;;;12.87;48.99
54236;BME280;40151;43.606;1.472;2023-01-28T06:04:47;99861.50;;;12.85;48.93
54236;BME280;40151;43.606;1.472;2023-01-28T06:07:12;99860.63;;;12.85;49.03
54236;BME280;40151;43.606;1.472;2023-01-28T06:09:38;99863.25;;;12.85;48.95
54236;BME280;40151;43.606;1.472;2023-01-28T06:12:04;99864.16;;;12.82;48.92
54236;BME280;40151;43.606;1.472;2023-01-28T06:14:29;99865.97;;;12.80;48.99
54236;BME280;40151;43.606;1.472;2023-01-28T06:16:54;99872.03;;;12.82;48.95
54236;BME280;40151;43.606;1.472;2023-01-28T06:19:20;99884.22;;;12.83;48.96
54236;BME280;40151;43.606;1.472;2023-01-28T06:21:45;99871.16;;;12.82;49.02
54236;BME280;40151;43.606;1.472;2023-01-28T06:24:11;99874.66;;;12.82;49.02
54236;BME280;40151;43.606;1.472;2023-01-28T06:26:37;99879.88;;;12.82;49.00
54236;BME280;40151;43.606;1.472;2023-01-28T06:29:02;99878.16;;;12.83;48.97
54236;BME280;40151;43.606;1.472;2023-01-28T06:31:28;99882.47;;;12.84;48.86
54236;BME280;40151;43.606;1.472;2023-01-28T06:33:53;99887.78;;;12.79;48.94
54236;BME280;40151;43.606;1.472;2023-01-28T06:36:18;99884.31;;;12.80;49.03
54236;BME280;40151;43.606;1.472;2023-01-28T06:38:44;99890.41;;;12.79;48.99
54236;BME280;40151;43.606;1.472;2023-01-28T06:41:09;99889.53;;;12.80;49.06
54236;BME280;40151;43.606;1.472;2023-01-28T06:43:35;99888.66;;;12.81;49.00
54236;BME280;40151;43.606;1.472;2023-01-28T06:46:00;99892.16;;;12.80;49.06
54236;BME280;40151;43.606;1.472;2023-01-28T06:48:26;99889.53;;;12.80;49.01
54236;BME280;40151;43.606;1.472;2023-01-28T06:50:52;99889.53;;;12.80;48.96
54236;BME280;40151;43.606;1.472;2023-01-28T06:53:18;99892.97;;;12.82;48.95
54236;BME280;40151;43.606;1.472;2023-01-28T06:55:44;99893.00;;;12.81;49.02
54236;BME280;40151;43.606;1.472;2023-01-28T06:58:10;99885.16;;;12.81;48.97
54236;BME280;40151;43.606;1.472;2023-01-28T07:00:36;99897.41;;;12.80;49.03
54236;BME280;40151;43.606;1.472;2023-01-28T07:03:02;99897.41;;;12.79;49.18
54236;BME280;40151;43.606;1.472;2023-01-28T07:05:28;99903.47;;;12.82;48.98
54236;BME280;40151;43.606;1.472;2023-01-28T07:07:53;99913.97;;;12.79;48.97
54236;BME280;40151;43.606;1.472;2023-01-28T07:10:18;99911.41;;;12.78;48.96
54236;BME280;40151;43.606;1.472;2023-01-28T07:12:44;99919.19;;;12.82;48.87
54236;BME280;40151;43.606;1.472;2023-01-28T07:15:10;99912.22;;;12.81;48.76
54236;BME280;40151;43.606;1.472;2023-01-28T07:17:39;99920.97;;;12.80;48.95
54236;BME280;40151;43.606;1.472;2023-01-28T07:20:06;99920.91;;;12.82;48.92
54236;BME280;40151;43.606;1.472;2023-01-28T07:22:32;99926.22;;;12.80;48.90
54236;BME280;40151;43.606;1.472;2023-01-28T07:24:57;99928.81;;;12.80;49.28
54236;BME280;40151;43.606;1.472;2023-01-28T07:27:25;99927.97;;;12.78;48.74
54236;BME280;40151;43.606;1.472;2023-01-28T07:29:50;99926.22;;;12.80;48.90
54236;BME280;40151;43.606;1.472;2023-01-28T07:32:16;99933.22;;;12.78;48.97
54236;BME280;40151;43.606;1.472;2023-01-28T07:34:41;99937.56;;;12.79;48.77
54236;BME280;40151;43.606;1.472;2023-01-28T07:37:08;99955.03;;;12.79;48.96
54236;BME280;40151;43.606;1.472;2023-01-28T07:39:33;99953.25;;;12.79;48.92
54236;BME280;40151;43.606;1.472;2023-01-28T07:41:59;99959.41;;;12.78;49.03
54236;BME280;40151;43.606;1.472;2023-01-28T07:44:25;99955.84;;;12.82;48.93
54236;BME280;40151;43.606;1.472;2023-01-28T07:46:50;99963.69;;;12.82;48.76
54236;BME280;40151;43.606;1.472;2023-01-28T07:49:16;99962.06;;;12.77;49.01
54236;BME280;40151;43.606;1.472;2023-01-28T07:51:41;99963.75;;;12.79;48.81
54236;BME280;40151;43.606;1.472;2023-01-28T07:54:07;99961.22;;;12.74;49.00
54236;BME280;40151;43.606;1.472;2023-01-28T07:56:33;99976.84;;;12.79;48.94
54236;BME280;40151;43.606;1.472;2023-01-28T07:58:58;99968.97;;;12.81;48.79
54236;BME280;40151;43.606;1.472;2023-01-28T08:01:24;99976.84;;;12.79;48.94
54236;BME280;40151;43.606;1.472;2023-01-28T08:03:50;99980.34;;;12.78;48.87
54236;BME280;40151;43.606;1.472;2023-01-28T08:06:16;99976.84;;;12.79;48.94
54236;BME280;40151;43.606;1.472;2023-01-28T08:08:41;99982.94;;;12.80;48.92
54236;BME280;40151;43.606;1.472;2023-01-28T08:11:08;99988.25;;;12.77;49.03
54236;BME280;40151;43.606;1.472;2023-01-28T08:13:36;99988.19;;;12.80;48.79
54236;BME280;40151;43.606;1.472;2023-01-28T08:16:02;99980.44;;;12.75;48.80
54236;BME280;40151;43.606;1.472;2023-01-28T08:18:27;99985.69;;;12.73;48.95
54236;BME280;40151;43.606;1.472;2023-01-28T08:20:57;99989.19;;;12.74;48.98
54236;BME280;40151;43.606;1.472;2023-01-28T08:23:23;99983.88;;;12.77;48.78
54236;BME280;40151;43.606;1.472;2023-01-28T08:25:51;99982.19;;;12.73;48.95
54236;BME280;40151;43.606;1.472;2023-01-28T08:28:17;99986.56;;;12.72;49.01
54236;BME280;40151;43.606;1.472;2023-01-28T08:30:42;99987.38;;;12.78;48.88
54236;BME280;40151;43.606;1.472;2023-01-28T08:33:09;99992.59;;;12.78;48.86
54236;BME280;40151;43.606;1.472;2023-01-28T08:35:36;99990.91;;;12.75;49.01
54236;BME280;40151;43.606;1.472;2023-01-28T08:38:02;100004.84;;;12.75;48.97
54236;BME280;40151;43.606;1.472;2023-01-28T08:40:28;100006.66;;;12.72;48.92
54236;BME280;40151;43.606;1.472;2023-01-28T08:42:54;100003.97;;;12.77;49.04
54236;BME280;40151;43.606;1.472;2023-01-28T08:45:22;100006.63;;;12.73;48.91
54236;BME280;40151;43.606;1.472;2023-01-28T08:47:55;100004.91;;;12.74;48.91
54236;BME280;40151;43.606;1.472;2023-01-28T08:50:22;100000.50;;;12.74;48.93
54236;BME280;40151;43.606;1.472;2023-01-28T08:52:54;100015.28;;;12.77;48.94
54236;BME280;40151;43.606;1.472;2023-01-28T08:55:20;100006.63;;;12.75;48.96
54236;BME280;40151;43.606;1.472;2023-01-28T08:57:45;100022.31;;;12.75;48.82
54236;BME280;40151;43.606;1.472;2023-01-28T09:00:11;100023.16;;;12.75;48.99
54236;BME280;40151;43.606;1.472;2023-01-28T09:02:37;100031.09;;;12.74;49.06
54236;BME280;40151;43.606;1.472;2023-01-28T09:05:03;100029.31;;;12.73;48.85
54236;BME280;40151;43.606;1.472;2023-01-28T09:07:29;100024.97;;;12.72;48.93
54236;BME280;40151;43.606;1.472;2023-01-28T09:09:55;100031.09;;;12.74;48.94
54236;BME280;40151;43.606;1.472;2023-01-28T09:12:21;100031.91;;;12.76;48.97
54236;BME280;40151;43.606;1.472;2023-01-28T09:14:46;100024.97;;;12.73;48.83
54236;BME280;40151;43.606;1.472;2023-01-28T09:17:11;100036.31;;;12.74;48.88
54236;BME280;40151;43.606;1.472;2023-01-28T09:19:37;100033.72;;;12.72;48.99
54236;BME280;40151;43.606;1.472;2023-01-28T09:22:03;100034.56;;;12.73;48.85
54236;BME280;40151;43.606;1.472;2023-01-28T09:24:28;100043.28;;;12.75;48.86
54236;BME280;40151;43.606;1.472;2023-01-28T09:26:54;100038.97;;;12.72;49.10
54236;BME280;40151;43.606;1.472;2023-01-28T09:29:19;100038.97;;;12.72;48.92
54236;BME280;40151;43.606;1.472;2023-01-28T09:31:45;100037.22;;;12.71;49.01
54236;BME280;40151;43.606;1.472;2023-01-28T09:34:11;100043.31;;;12.72;48.83
54236;BME280;40151;43.606;1.472;2023-01-28T09:36:36;100049.44;;;12.72;48.99
54236;BME280;40151;43.606;1.472;2023-01-28T09:39:02;100045.09;;;12.70;48.99
54236;BME280;40151;43.606;1.472;2023-01-28T09:46:36;100042.47;;;12.71;48.85
54236;BME280;40151;43.606;1.472;2023-01-28T09:49:14;100048.56;;;12.72;48.98
54236;BME280;40151;43.606;1.472;2023-01-28T09:51:46;100047.72;;;12.71;48.92
54236;BME280;40151;43.606;1.472;2023-01-28T09:54:28;100043.31;;;12.72;48.97
54236;BME280;40151;43.606;1.472;2023-01-28T09:57:03;100039.88;;;12.70;49.11
54236;BME280;40151;43.606;1.472;2023-01-28T09:59:33;100038.03;;;12.75;48.99
54236;BME280;40151;43.606;1.472;2023-01-28T10:02:17;100036.31;;;12.74;49.03
54236;BME280;40151;43.606;1.472;2023-01-28T10:07:36;100038.06;;;12.72;49.00
54236;BME280;40151;43.606;1.472;2023-01-28T10:18:13;100048.56;;;12.72;49.19
54236;BME280;40151;43.606;1.472;2023-01-28T10:20:54;100055.56;;;12.71;49.01
54236;BME280;40151;43.606;1.472;2023-01-28T10:25:58;100049.44;;;12.72;48.88
54236;BME280;40151;43.606;1.472;2023-01-28T10:28:26;100045.94;;;12.72;48.88
54236;BME280;40151;43.606;1.472;2023-01-28T10:30:53;100052.91;;;12.73;48.91
54236;BME280;40151;43.606;1.472;2023-01-28T10:33:32;100047.66;;;12.73;48.79
54236;BME280;40151;43.606;1.472;2023-01-28T10:36:00;100055.47;;;12.76;48.89
54236;BME280;40151;43.606;1.472;2023-01-28T10:38:26;100050.28;;;12.73;48.95
54236;BME280;40151;43.606;1.472;2023-01-28T10:40:54;100052.97;;;12.68;48.83
54236;BME280;40151;43.606;1.472;2023-01-28T10:43:24;100053.75;;;12.75;48.93
54236;BME280;40151;43.606;1.472;2023-01-28T10:46:20;100055.47;;;12.76;48.90
54236;BME280;40151;43.606;1.472;2023-01-28T10:49:14;100052.03;;;12.74;48.91
54236;BME280;40151;43.606;1.472;2023-01-28T10:51:42;100058.13;;;12.74;48.92
54236;BME280;40151;43.606;1.472;2023-01-28T10:54:34;100067.75;;;12.74;48.75
54236;BME280;40151;43.606;1.472;2023-01-28T10:57:01;100060.75;;;12.73;48.69
54236;BME280;40151;43.606;1.472;2023-01-28T10:59:30;100064.25;;;12.72;48.95
54236;BME280;40151;43.606;1.472;2023-01-28T11:02:00;100070.38;;;12.74;48.98
54236;BME280;40151;43.606;1.472;2023-01-28T11:04:32;100067.75;;;12.74;48.92
54236;BME280;40151;43.606;1.472;2023-01-28T11:07:01;100059.00;;;12.75;48.94
54236;BME280;40151;43.606;1.472;2023-01-28T11:09:28;100056.41;;;12.73;49.08
54236;BME280;40151;43.606;1.472;2023-01-28T11:11:56;100060.72;;;12.76;48.91
54236;BME280;40151;43.606;1.472;2023-01-28T11:14:26;100061.59;;;12.75;48.95
54236;BME280;40151;43.606;1.472;2023-01-28T11:16:53;100054.59;;;12.75;48.85
54236;BME280;40151;43.606;1.472;2023-01-28T11:19:27;100053.78;;;12.72;49.08
54236;BME280;40151;43.606;1.472;2023-01-28T11:21:55;100043.28;;;12.75;49.01
54236;BME280;40151;43.606;1.472;2023-01-28T11:24:26;100034.63;;;12.70;49.04
54236;BME280;40151;43.606;1.472;2023-01-28T11:26:54;100043.25;;;12.77;49.06
54236;BME280;40151;43.606;1.472;2023-01-28T11:29:32;100034.56;;;12.73;49.00
54236;BME280;40151;43.606;1.472;2023-01-28T11:31:59;100034.53;;;12.76;49.28
54236;BME280;40151;43.606;1.472;2023-01-28T11:34:29;100027.56;;;12.75;49.18
54236;BME280;40151;43.606;1.472;2023-01-28T11:37:11;100027.56;;;12.75;49.07
54236;BME280;40151;43.606;1.472;2023-01-28T11:39:37;100025.88;;;12.71;49.27
54236;BME280;40151;43.606;1.472;2023-01-28T11:42:17;100035.41;;;12.75;49.17
54236;BME280;40151;43.606;1.472;2023-01-28T11:44:43;100031.00;;;12.77;48.93
54236;BME280;40151;43.606;1.472;2023-01-28T11:57:50;100013.56;;;12.76;49.09
54236;BME280;40151;43.606;1.472;2023-01-28T12:05:56;100008.38;;;12.73;49.14
54236;BME280;40151;43.606;1.472;2023-01-28T12:08:31;99997.91;;;12.73;49.44
54236;BME280;40151;43.606;1.472;2023-01-28T12:29:36;99977.81;;;12.73;49.24
54236;BME280;40151;43.606;1.472;2023-01-28T12:32:12;99973.47;;;12.74;49.10
54236;BME280;40151;43.606;1.472;2023-01-28T12:34:59;99974.38;;;12.71;49.17
54236;BME280;40151;43.606;1.472;2023-01-28T12:43:52;99967.34;;;12.75;49.00
54236;BME280;40151;43.606;1.472;2023-01-28T12:46:31;99964.72;;;12.73;49.02
54236;BME280;40151;43.606;1.472;2023-01-28T12:49:19;99961.22;;;12.73;49.16
54236;BME280;40151;43.606;1.472;2023-01-28T12:52:04;99961.22;;;12.73;49.19
54236;BME280;40151;43.606;1.472;2023-01-28T12:55:00;99957.75;;;12.74;49.17
54236;BME280;40151;43.606;1.472;2023-01-28T12:57:30;99957.75;;;12.74;49.03
54236;BME280;40151;43.606;1.472;2023-01-28T13:00:36;99950.72;;;12.76;48.99
54236;BME280;40151;43.606;1.472;2023-01-28T13:03:18;99938.56;;;12.72;49.12
54236;BME280;40151;43.606;1.472;2023-01-28T13:05:56;99942.88;;;12.74;48.94
54236;BME280;40151;43.606;1.472;2023-01-28T13:08:26;99943.81;;;12.72;49.00
54236;BME280;40151;43.606;1.472;2023-01-28T13:10:52;99948.22;;;12.70;49.12
54236;BME280;40151;43.606;1.472;2023-01-28T13:13:37;99947.31;;;12.71;49.05
54236;BME280;40151;43.606;1.472;2023-01-28T13:16:05;99935.94;;;12.72;49.00
54236;BME280;40151;43.606;1.472;2023-01-28T13:21:11;99940.28;;;12.73;48.95
54236;BME280;40151;43.606;1.472;2023-01-28T13:28:44;99941.19;;;12.72;49.01
54236;BME280;40151;43.606;1.472;2023-01-28T13:31:12;99940.28;;;12.73;49.02
54236;BME280;40151;43.606;1.472;2023-01-28T13:33:44;99942.09;;;12.71;49.01
54236;BME280;40151;43.606;1.472;2023-01-28T13:36:30;99949.00;;;12.75;49.06
54236;BME280;40151;43.606;1.472;2023-01-28T13:41:36;99949.91;;;12.74;49.21
54236;BME280;40151;43.606;1.472;2023-01-28T13:44:02;99956.91;;;12.72;49.08
54236;BME280;40151;43.606;1.472;2023-01-28T13:46:29;99955.19;;;12.71;48.95
54236;BME280;40151;43.606;1.472;2023-01-28T13:48:57;99953.44;;;12.71;49.02
54236;BME280;40151;43.606;1.472;2023-01-28T13:54:22;99959.63;;;12.66;48.98
54236;BME280;40151;43.606;1.472;2023-01-28T13:59:53;99965.56;;;12.75;48.85
54236;BME280;40151;43.606;1.472;2023-01-28T14:05:21;99964.78;;;12.70;49.08
54236;BME280;40151;43.606;1.472;2023-01-28T14:16:30;99976.16;;;12.69;49.07
54236;BME280;40151;43.606;1.472;2023-01-28T14:18:59;99978.81;;;12.68;49.26
54236;BME280;40151;43.606;1.472;2023-01-28T14:21:27;99985.78;;;12.69;48.99
54236;BME280;40151;43.606;1.472;2023-01-28T14:23:56;99985.78;;;12.69;48.97
54236;BME280;40151;43.606;1.472;2023-01-28T14:31:42;99995.34;;;12.70;49.17
54236;BME280;40151;43.606;1.472;2023-01-28T14:34:15;99989.22;;;12.71;48.88
54236;BME280;40151;43.606;1.472;2023-01-28T14:36:45;99996.19;;;12.72;48.90
54236;BME280;40151;43.606;1.472;2023-01-28T14:39:18;99998.00;;;12.68;48.98
54236;BME280;40151;43.606;1.472;2023-01-28T14:41:47;99991.91;;;12.68;49.00
54236;BME280;40151;43.606;1.472;2023-01-28T14:44:35;100005.00;;;12.68;48.95
54236;BME280;40151;43.606;1.472;2023-01-28T14:58:38;100009.34;;;12.69;48.99
54236;BME280;40151;43.606;1.472;2023-01-28T15:01:27;100008.44;;;12.70;48.89
54236;BME280;40151;43.606;1.472;2023-01-28T15:03:52;100017.19;;;12.69;48.83
54236;BME280;40151;43.606;1.472;2023-01-28T15:06:21;100016.31;;;12.68;48.91
54236;BME280;40151;43.606;1.472;2023-01-28T15:08:49;100012.00;;;12.66;49.00
54236;BME280;40151;43.606;1.472;2023-01-28T15:11:21;100016.31;;;12.68;48.95
54236;BME280;40151;43.606;1.472;2023-01-28T15:13:51;100010.25;;;12.68;48.88